createdAt,value
2023-03-18T00:00:15.477Z,1.52
2023-03-18T00:02:42.337Z,1.90
2023-03-18T00:05:11.050Z,1.42
2023-03-18T00:07:37.744Z,1.95
2023-03-18T00:10:06.700Z,1.77
2023-03-18T00:12:33.466Z,1.63
2023-03-18T00:15:00.881Z,1.50
2023-03-18T00:17:28.226Z,2.22
2023-03-18T00:19:55.206Z,1.90
2023-03-18T00:22:22.681Z,1.50
2023-03-18T00:24:49.335Z,1.63
2023-03-18T00:27:16.285Z,1.77
2023-03-18T00:29:43.128Z,2.00
2023-03-18T00:32:09.884Z,1.80
2023-03-18T00:34:36.528Z,2.58
2023-03-18T00:37:03.606Z,2.03
2023-03-18T00:39:33.010Z,1.55
2023-03-18T00:42:02.146Z,1.77
2023-03-18T00:44:28.813Z,1.40
2023-03-18T00:46:55.598Z,1.80
2023-03-18T00:49:22.392Z,1.48
2023-03-18T00:51:49.049Z,1.38
2023-03-18T00:54:18.675Z,1.60
2023-03-18T00:56:45.436Z,2.20
2023-03-18T00:59:13.306Z,1.65
2023-03-18T01:01:40.590Z,1.90
2023-03-18T01:04:07.469Z,1.23
2023-03-18T01:06:37.427Z,1.60
2023-03-18T01:09:05.862Z,1.55
2023-03-18T01:11:33.564Z,1.55
2023-03-18T01:14:00.576Z,1.67
2023-03-18T01:16:27.403Z,1.73
2023-03-18T01:18:54.353Z,1.67
2023-03-18T01:21:21.059Z,1.60
2023-03-18T01:23:47.849Z,1.20
2023-03-18T01:26:14.949Z,1.52
2023-03-18T01:28:42.354Z,1.60
2023-03-18T01:31:09.100Z,1.50
2023-03-18T01:33:36.739Z,1.50
2023-03-18T01:36:05.300Z,1.73
2023-03-18T01:38:32.500Z,1.42
2023-03-18T01:41:00.525Z,1.58
2023-03-18T01:43:34.128Z,1.30
2023-03-18T01:46:22.168Z,1.60
2023-03-18T01:48:49.656Z,1.58
2023-03-18T01:51:16.462Z,1.20
2023-03-18T01:53:48.768Z,1.42
2023-03-18T01:56:17.914Z,1.40
2023-03-18T01:58:51.209Z,1.63
2023-03-18T02:01:35.092Z,1.48
2023-03-18T02:04:05.160Z,1.60
2023-03-18T02:06:31.940Z,1.38
2023-03-18T02:08:58.883Z,1.52
2023-03-18T02:13:52.494Z,1.33
2023-03-18T02:16:25.862Z,1.35
2023-03-18T02:18:56.478Z,1.20
2023-03-18T02:21:23.214Z,1.38
2023-03-18T02:24:06.119Z,1.15
2023-03-18T02:26:45.083Z,1.45
2023-03-18T02:29:14.659Z,1.85
2023-03-18T02:31:42.674Z,2.13
2023-03-18T02:34:10.888Z,1.30
2023-03-18T02:36:37.738Z,0.93
2023-03-18T02:39:04.962Z,1.67
2023-03-18T02:41:34.410Z,1.23
2023-03-18T02:44:01.984Z,1.87
2023-03-18T02:46:51.820Z,1.25
2023-03-18T02:49:20.525Z,1.70
2023-03-18T02:51:47.228Z,1.40
2023-03-18T02:54:18.257Z,1.60
2023-03-18T02:56:45.194Z,1.85
2023-03-18T02:59:12.981Z,1.58
2023-03-18T03:01:41.587Z,1.30
2023-03-18T03:04:08.760Z,1.08
2023-03-18T03:06:36.635Z,1.50
2023-03-18T03:09:05.291Z,1.52
2023-03-18T03:11:32.063Z,1.20
2023-03-18T03:13:59.046Z,1.80
2023-03-18T03:16:25.698Z,1.70
2023-03-18T03:18:52.572Z,1.52
2023-03-18T03:21:19.491Z,1.40
2023-03-18T03:23:47.730Z,0.95
2023-03-18T03:26:15.984Z,1.27
2023-03-18T03:28:43.253Z,1.35
2023-03-18T03:31:10.742Z,1.88
2023-03-18T03:33:41.776Z,1.58
2023-03-18T03:36:11.627Z,1.30
2023-03-18T03:38:38.779Z,1.55
2023-03-18T03:41:05.577Z,1.20
2023-03-18T03:43:33.966Z,1.13
2023-03-18T03:46:00.766Z,1.30
2023-03-18T03:48:27.943Z,1.40
2023-03-18T03:50:55.075Z,1.63
2023-03-18T03:53:21.724Z,1.65
2023-03-18T03:55:48.421Z,1.40
2023-03-18T03:58:15.093Z,1.50
2023-03-18T04:00:41.751Z,1.30
2023-03-18T04:03:08.472Z,1.38
2023-03-18T04:05:35.145Z,1.40
2023-03-18T04:08:01.833Z,1.40
2023-03-18T04:10:28.695Z,1.88
2023-03-18T04:12:55.422Z,1.10
2023-03-18T04:15:22.733Z,1.55
2023-03-18T04:17:50.228Z,1.48
2023-03-18T04:20:17.751Z,1.48
2023-03-18T04:22:45.188Z,1.27
2023-03-18T04:25:12.533Z,1.17
2023-03-18T04:27:39.372Z,1.40
2023-03-18T04:30:08.425Z,1.70
2023-03-18T04:32:35.403Z,1.50
2023-03-18T04:35:02.264Z,1.30
2023-03-18T04:37:29.137Z,1.40
2023-03-18T04:39:55.891Z,1.08
2023-03-18T04:42:22.519Z,1.30
2023-03-18T04:44:49.484Z,2.72
2023-03-18T04:47:16.117Z,1.45
2023-03-18T04:49:42.810Z,1.52
2023-03-18T04:52:09.570Z,1.65
2023-03-18T04:54:37.238Z,1.48
2023-03-18T04:57:06.734Z,1.50
2023-03-18T04:59:33.590Z,1.63
2023-03-18T05:02:00.341Z,1.50
2023-03-18T05:04:27.405Z,1.95
2023-03-18T05:06:54.517Z,2.22
2023-03-18T05:09:21.245Z,1.70
2023-03-18T05:11:47.885Z,1.92
2023-03-18T05:14:15.478Z,1.55
2023-03-18T05:16:43.282Z,1.27
2023-03-18T05:19:10.638Z,1.48
2023-03-18T05:21:37.575Z,1.60
2023-03-18T05:24:04.710Z,1.30
2023-03-18T05:26:31.348Z,1.33
2023-03-18T05:28:58.839Z,1.27
2023-03-18T05:31:25.684Z,1.70
2023-03-18T05:33:52.636Z,1.33
2023-03-18T05:36:19.540Z,1.40
2023-03-18T05:38:46.143Z,1.42
2023-03-18T05:41:12.839Z,1.30
2023-03-18T05:43:39.619Z,1.45
2023-03-18T05:46:06.627Z,1.30
2023-03-18T05:48:33.307Z,1.45
2023-03-18T05:50:59.989Z,1.67
2023-03-18T05:53:26.723Z,1.33
2023-03-18T05:55:53.378Z,1.33
2023-03-18T05:58:21.049Z,1.40
2023-03-18T06:00:47.767Z,1.48
2023-03-18T06:03:14.900Z,1.45
2023-03-18T06:05:42.067Z,1.10
2023-03-18T06:08:08.752Z,1.20
2023-03-18T06:10:35.358Z,1.30
2023-03-18T06:13:01.991Z,1.08
2023-03-18T06:15:28.745Z,1.35
2023-03-18T06:17:55.437Z,1.40
2023-03-18T06:20:23.335Z,1.95
2023-03-18T06:22:50.290Z,1.40
2023-03-18T06:25:20.060Z,1.40
2023-03-18T06:27:47.894Z,1.60
2023-03-18T06:30:16.061Z,1.23
2023-03-18T06:32:43.381Z,1.20
2023-03-18T06:35:11.670Z,1.58
2023-03-18T06:37:40.040Z,1.83
2023-03-18T06:40:08.533Z,1.65
2023-03-18T06:42:35.641Z,1.48
2023-03-18T06:45:02.673Z,1.73
2023-03-18T06:47:29.533Z,1.75
2023-03-18T06:49:56.799Z,1.55
2023-03-18T06:52:23.620Z,1.35
2023-03-18T06:54:50.633Z,1.40
2023-03-18T06:57:17.541Z,1.30
2023-03-18T06:59:45.469Z,1.00
2023-03-18T07:02:15.331Z,1.20
2023-03-18T07:04:42.566Z,1.27
2023-03-18T07:07:09.533Z,1.38
2023-03-18T07:09:36.584Z,1.30
2023-03-18T07:12:03.463Z,2.10
2023-03-18T07:14:30.650Z,2.00
2023-03-18T07:16:57.488Z,1.88
2023-03-18T07:19:24.539Z,2.03
2023-03-18T07:21:51.486Z,1.90
2023-03-18T07:24:21.029Z,1.88
2023-03-18T07:26:50.123Z,1.92
2023-03-18T07:29:17.544Z,1.98
2023-03-18T07:31:44.650Z,1.90
2023-03-18T07:34:12.154Z,1.75
2023-03-18T07:36:39.117Z,1.40
2023-03-18T07:39:06.488Z,1.60
2023-03-18T07:41:33.683Z,1.70
2023-03-18T07:44:01.098Z,1.90
2023-03-18T07:46:27.823Z,2.05
2023-03-18T07:48:54.499Z,2.03
2023-03-18T07:51:21.664Z,1.90
2023-03-18T07:53:48.283Z,2.05
2023-03-18T07:56:14.945Z,2.30
2023-03-18T07:58:41.618Z,3.75
2023-03-18T08:01:08.330Z,4.20
2023-03-18T08:03:35.438Z,3.72
2023-03-18T08:06:02.670Z,3.72
2023-03-18T08:08:29.608Z,2.72
2023-03-18T08:11:00.357Z,1.10
2023-03-18T08:13:27.188Z,1.70
2023-03-18T08:15:54.170Z,1.52
2023-03-18T08:18:20.889Z,1.13
2023-03-18T08:20:48.410Z,1.27
2023-03-18T08:23:15.201Z,1.67
2023-03-18T08:25:42.939Z,1.58
2023-03-18T08:28:10.832Z,1.40
2023-03-18T08:30:39.431Z,1.08
2023-03-18T08:33:06.115Z,1.67
2023-03-18T08:35:34.085Z,1.50
2023-03-18T08:38:01.189Z,1.30
2023-03-18T08:40:28.236Z,1.30
2023-03-18T08:42:54.892Z,1.50
2023-03-18T08:45:21.501Z,5.13
2023-03-18T08:47:48.386Z,6.05
2023-03-18T08:50:15.231Z,2.30
2023-03-18T08:52:41.849Z,1.50
2023-03-18T08:55:09.718Z,1.05
2023-03-18T08:57:37.425Z,0.95
2023-03-18T09:00:05.506Z,1.60
2023-03-18T09:02:33.754Z,1.92
2023-03-18T09:05:00.491Z,1.40
2023-03-18T09:07:27.924Z,1.60
2023-03-18T09:09:54.546Z,2.40
2023-03-18T09:12:22.031Z,1.20
2023-03-18T09:14:48.839Z,1.20
2023-03-18T09:17:15.870Z,1.17
2023-03-18T09:19:42.571Z,1.73
2023-03-18T09:22:10.274Z,1.52
2023-03-18T09:24:37.101Z,1.00
2023-03-18T09:27:03.857Z,1.73
2023-03-18T09:29:30.668Z,1.05
2023-03-18T09:31:57.384Z,1.55
2023-03-18T09:34:24.078Z,1.70
2023-03-18T09:36:53.620Z,1.70
2023-03-18T09:39:21.284Z,1.10
2023-03-18T09:42:15.938Z,1.00
2023-03-18T09:44:43.565Z,0.98
2023-03-18T09:47:29.092Z,1.17
2023-03-18T09:50:16.409Z,0.82
2023-03-18T09:53:11.374Z,1.00
2023-03-18T09:55:46.535Z,1.67
2023-03-18T09:58:22.717Z,2.10
2023-03-18T10:00:54.078Z,0.80
2023-03-18T10:03:29.740Z,0.77
2023-03-18T10:06:21.039Z,1.23
2023-03-18T10:09:08.306Z,1.33
2023-03-18T10:11:42.979Z,1.20
2023-03-18T10:14:27.732Z,1.02
2023-03-18T10:17:04.939Z,1.30
2023-03-18T10:19:33.618Z,0.90
2023-03-18T10:22:31.516Z,1.77
2023-03-18T10:25:42.620Z,1.80
2023-03-18T10:28:20.442Z,1.30
2023-03-18T10:30:54.786Z,3.75
2023-03-18T10:33:30.323Z,1.90
2023-03-18T10:36:00.263Z,3.78
2023-03-18T10:38:40.045Z,1.75
2023-03-18T10:41:20.771Z,1.48
2023-03-18T10:43:52.020Z,2.97
2023-03-18T10:46:21.781Z,1.70
2023-03-18T10:49:07.866Z,2.85
2023-03-18T10:51:40.156Z,4.10
2023-03-18T10:54:12.671Z,1.90
2023-03-18T10:56:39.743Z,1.50
2023-03-18T10:59:13.495Z,6.20
2023-03-18T11:01:41.648Z,3.97
2023-03-18T11:04:14.816Z,2.33
2023-03-18T11:06:53.183Z,1.77
2023-03-18T11:09:22.682Z,1.98
2023-03-18T11:11:55.862Z,2.90
2023-03-18T11:14:29.744Z,2.45
2023-03-18T11:17:04.969Z,3.17
2023-03-18T11:19:39.597Z,2.97
2023-03-18T11:22:21.011Z,2.08
2023-03-18T11:25:17.101Z,2.35
2023-03-18T11:27:46.129Z,1.77
2023-03-18T11:30:37.455Z,1.70
2023-03-18T11:33:13.058Z,2.22
2023-03-18T11:35:48.054Z,1.35
2023-03-18T11:38:36.601Z,1.38
2023-03-18T11:41:17.968Z,1.80
2023-03-18T11:43:56.610Z,2.08
2023-03-18T11:46:25.902Z,1.67
2023-03-18T11:48:52.791Z,1.13
2023-03-18T11:51:30.333Z,2.60
2023-03-18T11:54:09.466Z,4.15
2023-03-18T11:56:47.425Z,6.45
2023-03-18T11:59:46.808Z,4.70
2023-03-18T12:02:37.984Z,6.65
2023-03-18T12:05:33.860Z,4.97
2023-03-18T12:08:11.994Z,2.60
2023-03-18T12:10:48.537Z,8.85
2023-03-18T12:13:27.015Z,3.78
2023-03-18T12:16:11.786Z,6.03
2023-03-18T12:19:02.713Z,3.10
2023-03-18T12:21:53.460Z,1.92
2023-03-18T12:24:38.185Z,1.42
2023-03-18T12:27:26.953Z,1.67
2023-03-18T12:30:06.576Z,1.63
2023-03-18T12:32:46.755Z,1.30
2023-03-18T12:35:20.759Z,1.17
2023-03-18T12:38:33.064Z,1.02
2023-03-18T12:41:29.624Z,1.10
2023-03-18T12:44:20.625Z,1.40
2023-03-18T12:47:31.877Z,1.50
2023-03-18T12:50:19.554Z,0.82
2023-03-18T12:53:09.941Z,1.27
2023-03-18T12:58:10.324Z,0.93
2023-03-18T13:00:47.944Z,0.90
2023-03-18T13:03:35.270Z,1.42
2023-03-18T13:06:25.083Z,1.02
2023-03-18T13:09:08.119Z,1.35
2023-03-18T13:11:44.673Z,1.73
2023-03-18T13:14:25.749Z,1.02
2023-03-18T13:16:55.085Z,1.30
2023-03-18T13:19:22.009Z,1.07
2023-03-18T13:22:03.984Z,1.30
2023-03-18T13:25:00.899Z,0.80
2023-03-18T13:27:46.998Z,1.10
2023-03-18T13:30:55.518Z,1.02
2023-03-18T13:33:44.257Z,1.35
2023-03-18T13:36:19.353Z,2.13
2023-03-18T13:39:24.479Z,1.13
2023-03-18T13:42:05.767Z,1.55
2023-03-18T13:44:47.167Z,1.40
2023-03-18T13:47:22.207Z,0.95
2023-03-18T13:49:49.194Z,0.82
2023-03-18T13:52:46.803Z,1.20
2023-03-18T13:55:39.948Z,1.10
2023-03-18T13:58:13.887Z,1.13
2023-03-18T14:00:42.830Z,1.00
2023-03-18T14:03:21.773Z,1.48
2023-03-18T14:06:07.194Z,1.30
2023-03-18T14:08:54.168Z,1.30
2023-03-18T14:11:23.990Z,1.25
2023-03-18T14:13:52.950Z,1.02
2023-03-18T14:16:48.042Z,0.90
2023-03-18T14:19:32.412Z,0.73
2023-03-18T14:22:07.020Z,1.10
2023-03-18T14:24:33.708Z,0.90
2023-03-18T14:27:06.766Z,1.08
2023-03-18T14:29:47.310Z,1.10
2023-03-18T14:32:30.170Z,1.08
2023-03-18T14:35:16.660Z,1.15
2023-03-18T14:38:15.223Z,1.23
2023-03-18T14:40:46.186Z,0.90
2023-03-18T14:43:29.998Z,1.10
2023-03-18T14:46:01.804Z,1.27
2023-03-18T14:48:34.491Z,1.08
2023-03-18T14:51:05.720Z,1.10
2023-03-18T14:53:50.958Z,1.00
2023-03-18T14:56:25.422Z,1.30
2023-03-18T14:58:56.428Z,1.10
2023-03-18T15:01:33.629Z,1.20
2023-03-18T15:04:01.395Z,1.20
2023-03-18T15:06:29.232Z,1.10
2023-03-18T15:09:06.060Z,2.70
2023-03-18T15:11:41.210Z,1.50
2023-03-18T15:14:13.207Z,1.10
2023-03-18T15:16:39.946Z,1.15
2023-03-18T15:19:11.430Z,1.63
2023-03-18T15:21:38.527Z,1.10
2023-03-18T15:24:07.679Z,1.20
2023-03-18T15:26:37.607Z,0.90
2023-03-18T15:29:31.386Z,1.00
2023-03-18T15:32:20.115Z,1.00
2023-03-18T15:34:55.050Z,1.30
2023-03-18T15:37:31.669Z,1.13
2023-03-18T15:40:14.317Z,1.15
2023-03-18T15:42:43.864Z,1.42
2023-03-18T15:45:18.042Z,1.55
2023-03-18T15:47:44.968Z,2.00
2023-03-18T15:50:13.153Z,3.17
2023-03-18T15:52:41.952Z,2.33
2023-03-18T15:55:34.049Z,1.77
2023-03-18T15:58:03.615Z,2.10
2023-03-18T16:00:32.485Z,1.20
2023-03-18T16:02:59.662Z,1.55
2023-03-18T16:05:28.897Z,1.20
2023-03-18T16:07:55.969Z,1.30
2023-03-18T16:10:26.229Z,1.90
2023-03-18T16:15:23.931Z,1.30
2023-03-18T16:17:53.399Z,1.00
2023-03-18T16:20:26.085Z,1.03
2023-03-18T16:22:52.973Z,1.08
2023-03-18T16:25:19.846Z,2.45
2023-03-18T16:27:49.593Z,2.20
2023-03-18T16:30:28.364Z,1.15
2023-03-18T16:32:56.623Z,1.70
2023-03-18T16:35:32.499Z,2.20
2023-03-18T16:38:00.462Z,1.27
2023-03-18T16:40:29.813Z,1.52
2023-03-18T16:42:56.613Z,1.33
2023-03-18T16:45:30.816Z,1.80
2023-03-18T16:48:06.910Z,1.63
2023-03-18T16:50:36.478Z,2.08
2023-03-18T16:53:03.651Z,1.47
2023-03-18T16:55:30.613Z,2.20
2023-03-18T16:57:59.463Z,4.93
2023-03-18T17:00:32.866Z,2.55
2023-03-18T17:03:00.668Z,9.57
2023-03-18T17:05:28.322Z,9.15
2023-03-18T17:07:55.788Z,8.27
2023-03-18T17:10:25.236Z,2.70
2023-03-18T17:13:02.181Z,1.37
2023-03-18T17:15:31.848Z,1.17
2023-03-18T17:17:59.697Z,1.00
2023-03-18T17:20:32.330Z,1.00
2023-03-18T17:23:03.985Z,1.15
2023-03-18T17:25:31.688Z,1.70
2023-03-18T17:28:01.855Z,1.60
2023-03-18T17:30:38.170Z,1.88
2023-03-18T17:33:24.234Z,1.88
2023-03-18T17:35:52.183Z,1.52
2023-03-18T17:38:19.994Z,1.52
2023-03-18T17:40:48.030Z,1.75
2023-03-18T17:43:40.129Z,1.65
2023-03-18T17:46:06.902Z,1.70
2023-03-18T17:48:35.440Z,1.70
2023-03-18T17:51:06.865Z,2.45
2023-03-18T17:53:40.234Z,2.15
2023-03-18T17:56:11.505Z,1.63
2023-03-18T17:58:39.422Z,2.03
2023-03-18T18:01:18.244Z,2.13
2023-03-18T18:03:45.282Z,1.92
2023-03-18T18:06:28.796Z,2.15
2023-03-18T18:08:58.921Z,2.00
2023-03-18T18:11:31.110Z,2.13
2023-03-18T18:14:12.918Z,2.25
2023-03-18T18:16:40.654Z,1.65
2023-03-18T18:19:09.777Z,1.77
2023-03-18T18:21:37.536Z,2.53
2023-03-18T18:24:07.616Z,1.70
2023-03-18T18:26:34.263Z,1.80
2023-03-18T18:29:01.073Z,1.63
2023-03-18T18:31:27.775Z,2.22
2023-03-18T18:33:55.700Z,1.38
2023-03-18T18:36:22.718Z,1.67
2023-03-18T18:38:49.638Z,1.83
2023-03-18T18:41:16.297Z,1.98
2023-03-18T18:43:42.930Z,1.48
2023-03-18T18:46:17.358Z,1.70
2023-03-18T18:48:47.615Z,1.23
2023-03-18T18:51:19.887Z,1.77
2023-03-18T18:53:47.433Z,1.73
2023-03-18T18:56:32.070Z,2.70
2023-03-18T18:58:59.257Z,2.10
2023-03-18T19:01:26.431Z,2.65
2023-03-18T19:03:54.040Z,1.98
2023-03-18T19:06:26.297Z,2.53
2023-03-18T19:08:57.750Z,2.80
2023-03-18T19:11:25.347Z,1.80
2023-03-18T19:13:53.153Z,1.90
2023-03-18T19:16:34.107Z,1.60
2023-03-18T19:19:01.134Z,2.25
2023-03-18T19:21:27.952Z,3.83
2023-03-18T19:23:54.754Z,3.55
2023-03-18T19:26:21.646Z,2.80
2023-03-18T19:28:57.607Z,1.90
2023-03-18T19:31:27.147Z,1.80
2023-03-18T19:33:54.304Z,1.58
2023-03-18T19:36:31.556Z,2.08
2023-03-18T19:38:59.877Z,1.77
2023-03-18T19:41:27.118Z,1.85
2023-03-18T19:43:58.036Z,3.28
2023-03-18T19:46:38.475Z,4.68
2023-03-18T19:49:24.732Z,7.30
2023-03-18T19:51:52.311Z,6.30
2023-03-18T19:54:33.838Z,6.65
2023-03-18T19:57:04.776Z,6.63
2023-03-18T19:59:38.565Z,4.57
2023-03-18T20:02:20.906Z,4.65
2023-03-18T20:04:49.378Z,4.25
2023-03-18T20:07:20.689Z,2.10
2023-03-18T20:09:47.898Z,2.92
2023-03-18T20:12:36.555Z,3.05
2023-03-18T20:15:04.686Z,4.55
2023-03-18T20:17:45.520Z,3.35
2023-03-18T20:20:33.203Z,3.75
2023-03-18T20:23:11.970Z,2.95
2023-03-18T20:25:42.265Z,3.03
2023-03-18T20:30:40.966Z,2.00
2023-03-18T20:33:07.796Z,1.83
2023-03-18T20:35:40.586Z,2.30
2023-03-18T20:38:28.347Z,2.30
2023-03-18T20:40:55.272Z,2.10
2023-03-18T20:43:24.286Z,2.13
2023-03-18T20:45:51.942Z,2.08
2023-03-18T20:48:19.618Z,2.00
2023-03-18T20:50:46.891Z,1.90
2023-03-18T20:53:28.488Z,2.30
2023-03-18T20:55:55.954Z,2.80
2023-03-18T20:58:24.952Z,2.25
2023-03-18T21:00:52.679Z,2.15
2023-03-18T21:03:45.984Z,2.25
2023-03-18T21:06:17.005Z,1.90
2023-03-18T21:08:43.667Z,2.28
2023-03-18T21:11:21.573Z,2.75
2023-03-18T21:13:48.722Z,3.10
2023-03-18T21:16:16.822Z,2.42
2023-03-18T21:18:47.661Z,2.40
2023-03-18T21:21:36.513Z,2.75
2023-03-18T21:24:12.291Z,2.97
2023-03-18T21:26:39.437Z,3.20
2023-03-18T21:29:06.507Z,3.70
2023-03-18T21:31:33.452Z,3.30
2023-03-18T21:34:01.044Z,3.05
2023-03-18T21:36:27.943Z,2.55
2023-03-18T21:38:54.563Z,2.90
2023-03-18T21:41:27.910Z,2.65
2023-03-18T21:43:54.840Z,2.42
2023-03-18T21:46:24.521Z,2.88
2023-03-18T21:48:52.089Z,3.92
2023-03-18T21:51:38.442Z,4.60
2023-03-18T21:54:05.836Z,3.25
2023-03-18T21:56:32.515Z,4.07
2023-03-18T21:58:59.217Z,3.30
2023-03-18T22:01:30.991Z,3.35
2023-03-18T22:03:58.092Z,3.10
2023-03-18T22:06:25.014Z,3.20
2023-03-18T22:08:52.121Z,3.25
2023-03-18T22:11:22.078Z,2.42
2023-03-18T22:13:49.506Z,3.13
2023-03-18T22:16:17.863Z,3.10
2023-03-18T22:18:46.440Z,3.00
2023-03-18T22:21:31.257Z,3.45
2023-03-18T22:24:00.159Z,3.17
2023-03-18T22:26:26.815Z,3.28
2023-03-18T22:28:53.500Z,4.35
2023-03-18T22:31:24.393Z,2.70
2023-03-18T22:33:51.432Z,2.08
2023-03-18T22:36:19.586Z,2.17
2023-03-18T22:38:47.299Z,2.00
2023-03-18T22:41:29.212Z,2.55
2023-03-18T22:43:57.812Z,2.10
2023-03-18T22:46:24.544Z,3.17
2023-03-18T22:48:51.232Z,1.70
2023-03-18T22:51:30.704Z,2.90
2023-03-18T22:53:57.504Z,3.90
2023-03-18T22:56:24.135Z,2.80
2023-03-18T22:58:51.162Z,2.95
2023-03-18T23:01:20.584Z,3.40
2023-03-18T23:03:47.856Z,3.13
2023-03-18T23:06:18.629Z,3.20
2023-03-18T23:08:45.791Z,2.25
2023-03-18T23:11:13.423Z,2.28
2023-03-18T23:13:42.833Z,2.33
2023-03-18T23:16:15.670Z,3.70
2023-03-18T23:18:42.664Z,2.75
2023-03-18T23:21:38.782Z,2.58
2023-03-18T23:24:05.887Z,2.35
2023-03-18T23:26:32.599Z,1.65
2023-03-18T23:28:59.209Z,1.95
2023-03-18T23:31:25.966Z,2.00
2023-03-18T23:33:52.611Z,2.30
2023-03-18T23:36:19.325Z,2.10
2023-03-18T23:38:45.975Z,1.70
2023-03-18T23:41:12.612Z,2.15
2023-03-18T23:43:39.259Z,1.88
2023-03-18T23:46:06.271Z,2.13
2023-03-18T23:48:33.008Z,2.55
2023-03-18T23:50:59.665Z,1.77
2023-03-18T23:53:26.352Z,2.42
2023-03-18T23:55:53.000Z,1.77
2023-03-18T23:58:19.762Z,2.08
